Time;durP1;ratioP1;P1;durP2;ratioP2;P2;SDS_P1;SDS_P2;PMS_P1;PMS_P2;Temp;Humidity;BMP_temperature;BMP_pressure;BME280_temperature;BME280_humidity;BME280_pressure;Samples;Min_cycle;Max_cycle;Signal;HPM_P1;HPM_P2
2021/11/30 00:01:05;;;;;;;1.58;0.73;;;;;11.60;100785.00;;;;5083967;28;20210;-82
2021/11/30 00:03:33;;;;;;;1.20;0.43;;;;;11.60;100774.00;;;;5056415;28;20250;-82
2021/11/30 00:06:00;;;;;;;2.70;0.98;;;;;11.60;100773.00;;;;5060500;28;20201;-82
2021/11/30 00:08:30;;;;;;;2.30;1.10;;;;;11.60;100765.00;;;;5063556;28;20210;-82
2021/11/30 00:10:58;;;;;;;2.35;0.98;;;;;11.60;100752.00;;;;5056679;28;20696;-82
2021/11/30 00:13:27;;;;;;;2.63;1.52;;;;;11.60;100767.00;;;;5075587;28;20205;-81
2021/11/30 00:15:57;;;;;;;2.17;1.27;;;;;11.60;100752.00;;;;5075355;28;20227;-81
2021/11/30 00:18:25;;;;;;;2.80;1.33;;;;;11.60;100749.00;;;;5065715;28;20673;-82
2021/11/30 00:20:53;;;;;;;2.50;1.30;;;;;11.60;100745.00;;;;5055495;28;20213;-82
2021/11/30 00:23:21;;;;;;;6.47;1.35;;;;;11.60;100742.00;;;;5067664;28;20221;-83
2021/11/30 00:25:48;;;;;;;2.95;1.88;;;;;11.60;100744.00;;;;5067393;28;20239;-82
2021/11/30 00:28:15;;;;;;;3.10;1.80;;;;;11.60;100730.00;;;;5068453;28;20195;-81
2021/11/30 00:30:43;;;;;;;3.33;1.83;;;;;11.60;100726.00;;;;5084531;28;20199;-82
2021/11/30 00:33:11;;;;;;;3.45;1.83;;;;;11.60;100724.00;;;;5073515;28;20213;-82
2021/11/30 00:35:39;;;;;;;4.95;1.80;;;;;11.60;100713.00;;;;5066785;28;20225;-81
2021/11/30 00:38:07;;;;;;;4.43;1.80;;;;;11.60;100717.00;;;;5053536;28;20210;-82
2021/11/30 00:40:39;;;;;;;2.33;1.40;;;;;11.60;100715.00;;;;5067223;28;20191;-82
2021/11/30 00:43:06;;;;;;;2.67;1.55;;;;;11.60;100708.00;;;;5069050;28;20209;-82
2021/11/30 00:45:38;;;;;;;4.28;1.60;;;;;11.60;100695.00;;;;5070008;28;20205;-82
2021/11/30 00:48:09;;;;;;;2.35;1.48;;;;;11.60;100689.00;;;;5066614;28;20203;-82
2021/11/30 00:50:42;;;;;;;3.08;1.35;;;;;11.60;100703.00;;;;5078365;28;20198;-82
2021/11/30 00:53:10;;;;;;;3.70;1.92;;;;;11.60;100687.00;;;;5090037;28;20220;-79
2021/11/30 00:55:38;;;;;;;4.63;1.20;;;;;11.60;100667.00;;;;5111736;28;20709;-81
2021/11/30 00:58:06;;;;;;;3.80;1.30;;;;;11.60;100675.00;;;;5102544;28;20206;-81
2021/11/30 01:00:35;;;;;;;1.73;0.60;;;;;11.60;100683.00;;;;5107812;28;20210;-82
2021/11/30 01:03:03;;;;;;;2.65;1.25;;;;;11.60;100678.00;;;;5114219;28;20242;-81
2021/11/30 01:05:30;;;;;;;5.95;1.20;;;;;11.60;100686.00;;;;5115320;28;20205;-81
2021/11/30 01:07:59;;;;;;;6.38;1.50;;;;;11.60;100676.00;;;;5122947;28;20454;-81
2021/11/30 01:10:26;;;;;;;4.75;1.17;;;;;11.60;100676.00;;;;5113498;28;20206;-82
2021/11/30 01:12:54;;;;;;;3.97;1.10;;;;;11.60;100677.00;;;;5108362;28;20213;-80
2021/11/30 01:15:22;;;;;;;3.95;1.35;;;;;11.50;100679.00;;;;5120189;27;20193;-81
2021/11/30 01:17:51;;;;;;;4.10;1.00;;;;;11.50;100674.00;;;;5109934;28;20201;-82
2021/11/30 01:20:19;;;;;;;1.38;0.73;;;;;11.40;100670.00;;;;5112526;28;20213;-81
2021/11/30 01:22:46;;;;;;;1.98;0.57;;;;;11.40;100666.00;;;;5110243;27;20201;-81
2021/11/30 01:25:15;;;;;;;1.70;0.82;;;;;11.40;100662.00;;;;5122008;27;20201;-80
2021/11/30 01:27:43;;;;;;;1.95;0.93;;;;;11.40;100658.00;;;;5094876;28;20194;-81
2021/11/30 01:30:13;;;;;;;2.13;0.80;;;;;11.30;100655.00;;;;5107176;28;20205;-81
2021/11/30 01:32:41;;;;;;;2.55;0.90;;;;;11.30;100656.00;;;;5114341;27;20259;-81
2021/11/30 01:35:09;;;;;;;2.55;1.55;;;;;11.30;100644.00;;;;5097385;28;20225;-82
2021/11/30 01:37:37;;;;;;;3.58;1.17;;;;;11.30;100640.00;;;;5107206;28;20228;-82
2021/11/30 01:40:07;;;;;;;3.10;1.35;;;;;11.20;100636.00;;;;5104238;27;20850;-83
2021/11/30 01:42:40;;;;;;;3.00;1.60;;;;;11.20;100632.00;;;;5105445;27;20190;-82
2021/11/30 01:45:10;;;;;;;4.07;2.00;;;;;11.20;100624.00;;;;5105123;27;20679;-82
2021/11/30 01:47:54;;;;;;;4.38;2.38;;;;;11.20;100611.00;;;;5096105;28;20205;-82
2021/11/30 01:50:21;;;;;;;3.10;2.15;;;;;11.20;100611.00;;;;5101449;27;20237;-81
2021/11/30 01:52:50;;;;;;;5.28;3.30;;;;;11.20;100605.00;;;;5100793;28;21006;-82
2021/11/30 01:55:18;;;;;;;4.80;2.35;;;;;11.10;100602.00;;;;5106184;28;20194;-82
2021/11/30 01:57:47;;;;;;;4.22;2.25;;;;;11.10;100595.00;;;;5102129;28;20208;-82
2021/11/30 02:00:17;;;;;;;3.97;2.90;;;;;11.10;100581.00;;;;5090770;28;20213;-82
2021/11/30 02:02:44;;;;;;;3.92;3.00;;;;;11.10;100583.00;;;;5108181;28;20291;-81
2021/11/30 02:05:12;;;;;;;6.10;3.45;;;;;11.10;100582.00;;;;5112048;28;20201;-81
2021/11/30 02:07:40;;;;;;;3.88;2.55;;;;;11.10;100580.00;;;;5101771;28;20198;-80
2021/11/30 02:10:10;;;;;;;5.25;3.63;;;;;11.00;100579.00;;;;5091011;28;20210;-81
2021/11/30 02:12:39;;;;;;;5.00;3.30;;;;;11.00;100562.00;;;;5102374;28;20208;-83
2021/11/30 02:15:11;;;;;;;7.88;2.78;;;;;10.90;100560.00;;;;5096480;28;20316;-82
2021/11/30 02:17:40;;;;;;;4.97;2.88;;;;;10.90;100556.00;;;;5091093;28;20217;-82
2021/11/30 02:20:10;;;;;;;5.57;3.40;;;;;10.90;100559.00;;;;5115588;27;20587;-82
2021/11/30 02:22:38;;;;;;;6.13;2.95;;;;;10.90;100557.00;;;;5119359;27;20219;-82
2021/11/30 02:25:07;;;;;;;4.03;2.92;;;;;10.90;100549.00;;;;5118337;27;20216;-82
2021/11/30 02:27:34;;;;;;;3.78;2.88;;;;;10.90;100537.00;;;;5107068;27;20206;-80
2021/11/30 02:30:02;;;;;;;5.82;3.13;;;;;10.90;100534.00;;;;5110214;28;20250;-81
2021/11/30 02:32:29;;;;;;;4.55;3.20;;;;;10.80;100523.00;;;;5106286;28;20202;-80
2021/11/30 02:34:56;;;;;;;3.25;2.33;;;;;10.90;100526.00;;;;5100286;28;20249;-83
2021/11/30 02:37:28;;;;;;;5.10;2.83;;;;;10.80;100526.00;;;;5110165;28;20225;-83
2021/11/30 02:39:56;;;;;;;3.13;2.70;;;;;10.90;100514.00;;;;5106380;28;20198;-82
2021/11/30 02:42:23;;;;;;;3.47;2.75;;;;;10.90;100523.00;;;;5101662;28;20738;-83
2021/11/30 02:44:50;;;;;;;3.15;2.35;;;;;10.90;100508.00;;;;5110375;28;20205;-83
2021/11/30 02:47:17;;;;;;;2.85;2.35;;;;;10.90;100507.00;;;;5093458;28;20194;-84
2021/11/30 02:49:45;;;;;;;2.60;2.40;;;;;10.90;100491.00;;;;5105693;28;20190;-81
2021/11/30 02:52:17;;;;;;;3.95;2.85;;;;;11.00;100488.00;;;;5109220;28;20707;-83
2021/11/30 02:54:48;;;;;;;2.25;1.80;;;;;11.00;100483.00;;;;5108909;28;20208;-83
2021/11/30 02:57:17;;;;;;;2.72;2.08;;;;;11.00;100490.00;;;;5105119;28;20221;-83
2021/11/30 02:59:47;;;;;;;3.22;2.35;;;;;11.00;100494.00;;;;5109810;28;20197;-83
2021/11/30 03:02:17;;;;;;;4.63;2.50;;;;;11.00;100489.00;;;;5109628;28;20604;-83
2021/11/30 03:04:52;;;;;;;4.00;2.65;;;;;11.10;100476.00;;;;5110015;28;20202;-83
2021/11/30 03:07:22;;;;;;;2.65;2.42;;;;;11.10;100468.00;;;;5092359;28;20603;-84
2021/11/30 03:09:52;;;;;;;2.22;2.00;;;;;11.10;100472.00;;;;5093378;28;20208;-84
2021/11/30 03:12:19;;;;;;;2.55;2.15;;;;;11.10;100469.00;;;;5104618;28;20221;-82
2021/11/30 03:14:46;;;;;;;2.97;2.30;;;;;11.20;100462.00;;;;5097615;28;20202;-82
2021/11/30 03:17:14;;;;;;;2.75;2.35;;;;;11.20;100467.00;;;;5109825;28;20236;-83
2021/11/30 03:19:41;;;;;;;2.53;2.33;;;;;11.20;100460.00;;;;5109330;28;20205;-83
2021/11/30 03:22:09;;;;;;;2.30;1.92;;;;;11.20;100463.00;;;;5109460;28;20675;-83
2021/11/30 03:24:36;;;;;;;2.15;1.95;;;;;11.30;100454.00;;;;5110325;28;20209;-81
2021/11/30 03:27:05;;;;;;;2.08;1.88;;;;;11.30;100444.00;;;;5108652;27;20201;-84
2021/11/30 03:29:33;;;;;;;1.70;1.60;;;;;11.30;100438.00;;;;5116888;27;20211;-84
2021/11/30 03:32:06;;;;;;;1.83;1.60;;;;;11.40;100442.00;;;;5108179;27;20198;-83
2021/11/30 03:34:35;;;;;;;1.55;1.45;;;;;11.40;100447.00;;;;5119783;27;20248;-83
2021/11/30 03:37:03;;;;;;;1.60;1.40;;;;;11.40;100439.00;;;;5094971;27;20270;-83
2021/11/30 03:39:30;;;;;;;1.52;1.10;;;;;11.50;100433.00;;;;5109079;28;20734;-84
2021/11/30 03:42:00;;;;;;;1.60;1.50;;;;;11.50;100431.00;;;;5113329;27;20194;-83
2021/11/30 03:44:29;;;;;;;1.30;1.13;;;;;11.50;100422.00;;;;5099544;28;20205;-84
2021/11/30 03:46:57;;;;;;;1.00;0.80;;;;;11.60;100422.00;;;;5124996;27;20193;-84
2021/11/30 03:49:25;;;;;;;1.10;1.05;;;;;11.60;100414.00;;;;5113052;27;20766;-83
2021/11/30 03:51:52;;;;;;;1.13;0.80;;;;;11.60;100411.00;;;;5110219;27;20234;-85
2021/11/30 03:54:20;;;;;;;0.88;0.68;;;;;11.70;100409.00;;;;5088628;28;20202;-85
2021/11/30 03:56:50;;;;;;;1.27;0.90;;;;;11.70;100399.00;;;;5089022;28;20230;-84
2021/11/30 03:59:17;;;;;;;0.93;0.82;;;;;11.80;100403.00;;;;5102998;27;20200;-84
2021/11/30 04:01:46;;;;;;;1.20;0.90;;;;;11.80;100398.00;;;;5118427;27;20204;-83
2021/11/30 04:04:20;;;;;;;1.05;0.80;;;;;11.80;100406.00;;;;5096335;28;20202;-83
2021/11/30 04:06:49;;;;;;;1.10;1.00;;;;;11.80;100402.00;;;;5093549;28;20212;-84
2021/11/30 04:09:16;;;;;;;1.08;0.90;;;;;11.90;100401.00;;;;5096342;27;20287;-84
2021/11/30 04:11:43;;;;;;;1.50;0.80;;;;;11.90;100394.00;;;;5105518;27;20597;-84
2021/11/30 04:14:11;;;;;;;1.05;0.88;;;;;12.00;100406.00;;;;5104722;27;20206;-84
2021/11/30 04:16:39;;;;;;;0.80;0.70;;;;;12.00;100402.00;;;;5103489;28;20240;-84
2021/11/30 04:19:07;;;;;;;1.00;0.90;;;;;12.00;100397.00;;;;5112553;28;20197;-83
2021/11/30 04:21:35;;;;;;;1.00;0.88;;;;;12.10;100395.00;;;;5106993;28;20198;-84
2021/11/30 04:24:03;;;;;;;0.90;0.80;;;;;12.10;100384.00;;;;5097498;28;20217;-84
2021/11/30 04:26:30;;;;;;;1.00;0.85;;;;;12.20;100377.00;;;;5108109;28;20198;-84
2021/11/30 04:28:58;;;;;;;1.33;1.13;;;;;12.20;100373.00;;;;5091927;28;20198;-83
2021/11/30 04:31:25;;;;;;;1.02;0.93;;;;;12.30;100381.00;;;;5120222;28;20193;-81
2021/11/30 04:33:52;;;;;;;1.15;1.05;;;;;12.30;100377.00;;;;5105618;28;20225;-84
2021/11/30 04:36:21;;;;;;;0.95;0.85;;;;;12.30;100365.00;;;;5107042;28;20198;-84
2021/11/30 04:38:49;;;;;;;0.60;0.60;;;;;12.40;100373.00;;;;5107050;28;20206;-84
2021/11/30 04:41:16;;;;;;;1.23;1.05;;;;;12.40;100376.00;;;;5100711;28;20197;-85
2021/11/30 04:43:43;;;;;;;0.85;0.85;;;;;12.50;100376.00;;;;5111838;28;20221;-84
2021/11/30 04:46:14;;;;;;;1.10;0.95;;;;;12.50;100363.00;;;;5095820;28;20547;-84
2021/11/30 04:48:51;;;;;;;1.05;0.95;;;;;12.60;100352.00;;;;5121838;27;20205;-84
2021/11/30 04:51:18;;;;;;;0.77;0.77;;;;;12.60;100342.00;;;;5114873;27;21087;-84
2021/11/30 04:53:47;;;;;;;1.20;1.10;;;;;12.70;100342.00;;;;5126516;27;20208;-83
2021/11/30 04:56:16;;;;;;;1.08;0.98;;;;;12.70;100337.00;;;;5100086;28;20266;-84
2021/11/30 04:58:43;;;;;;;1.20;1.08;;;;;12.80;100331.00;;;;5106584;28;20221;-84
2021/11/30 05:01:11;;;;;;;2.03;1.00;;;;;12.80;100330.00;;;;5105296;28;20275;-84
2021/11/30 05:03:39;;;;;;;1.50;1.17;;;;;12.80;100332.00;;;;5112305;28;20216;-84
2021/11/30 05:06:07;;;;;;;1.20;0.85;;;;;12.90;100325.00;;;;5100805;27;20197;-84
2021/11/30 05:08:35;;;;;;;1.17;1.02;;;;;12.90;100317.00;;;;5091485;28;20190;-84
2021/11/30 05:11:04;;;;;;;0.75;0.75;;;;;13.00;100311.00;;;;5096134;28;20209;-84
2021/11/30 05:13:31;;;;;;;0.95;0.80;;;;;13.10;100324.00;;;;5104897;28;20212;-83
2021/11/30 05:15:58;;;;;;;1.25;1.02;;;;;13.10;100330.00;;;;5112150;27;20200;-84
2021/11/30 05:18:26;;;;;;;1.10;0.82;;;;;13.20;100333.00;;;;5112040;28;20607;-84
2021/11/30 05:20:54;;;;;;;1.45;0.98;;;;;13.20;100336.00;;;;5094606;27;20202;-84
2021/11/30 05:23:27;;;;;;;1.50;1.00;;;;;13.30;100341.00;;;;5095249;27;20238;-83
2021/11/30 05:25:55;;;;;;;1.00;0.63;;;;;13.40;100333.00;;;;5109684;27;20230;-83
2021/11/30 05:28:24;;;;;;;1.67;0.93;;;;;13.40;100335.00;;;;5113886;27;20200;-83
2021/11/30 05:30:51;;;;;;;1.50;1.00;;;;;13.50;100338.00;;;;5118238;27;20216;-84
2021/11/30 05:33:18;;;;;;;0.98;0.77;;;;;13.60;100343.00;;;;5094152;28;20225;-84
2021/11/30 05:35:46;;;;;;;1.02;0.90;;;;;13.60;100337.00;;;;5097231;28;20210;-83
2021/11/30 05:38:13;;;;;;;1.92;1.38;;;;;13.70;100338.00;;;;5108277;27;20220;-84
2021/11/30 05:40:42;;;;;;;1.55;0.75;;;;;13.80;100333.00;;;;5108706;27;20201;-83
2021/11/30 05:43:10;;;;;;;0.93;0.65;;;;;13.80;100340.00;;;;5119614;27;20288;-83
2021/11/30 05:45:39;;;;;;;1.35;0.90;;;;;13.90;100342.00;;;;5124223;27;20193;-82
2021/11/30 05:48:07;;;;;;;2.40;1.10;;;;;13.90;100344.00;;;;5109795;27;20209;-82
2021/11/30 05:50:35;;;;;;;1.10;0.82;;;;;14.00;100347.00;;;;5102007;28;20802;-83
2021/11/30 05:53:02;;;;;;;1.95;1.00;;;;;14.00;100350.00;;;;5094389;28;20236;-83
2021/11/30 05:55:30;;;;;;;2.38;1.90;;;;;14.00;100358.00;;;;5097207;28;20459;-83
2021/11/30 05:57:58;;;;;;;2.22;1.50;;;;;14.20;100350.00;;;;5108998;27;20348;-83
2021/11/30 06:00:29;;;;;;;1.33;0.80;;;;;14.20;100355.00;;;;5098776;27;20336;-83
2021/11/30 06:03:03;;;;;;;2.35;1.15;;;;;14.20;100349.00;;;;5095847;27;20194;-82
2021/11/30 06:05:32;;;;;;;1.15;0.98;;;;;14.20;100362.00;;;;5103051;28;20221;-83
2021/11/30 06:08:00;;;;;;;1.98;1.65;;;;;14.30;100365.00;;;;5118893;27;20220;-84
2021/11/30 06:10:28;;;;;;;1.30;1.10;;;;;14.30;100351.00;;;;5097898;28;20194;-84
2021/11/30 06:12:56;;;;;;;2.05;1.30;;;;;14.30;100350.00;;;;5094956;27;20205;-84
2021/11/30 06:15:24;;;;;;;2.42;1.42;;;;;14.30;100355.00;;;;5107437;27;20213;-83
2021/11/30 06:17:51;;;;;;;1.40;0.95;;;;;14.40;100342.00;;;;5101624;28;20713;-84
2021/11/30 06:20:21;;;;;;;1.48;1.15;;;;;14.40;100343.00;;;;5097031;28;20293;-84
2021/11/30 06:22:48;;;;;;;1.73;1.27;;;;;14.40;100337.00;;;;5102098;28;20206;-80
2021/11/30 06:25:18;;;;;;;2.35;1.42;;;;;14.40;100341.00;;;;5094591;28;20198;-82
2021/11/30 06:27:45;;;;;;;1.80;1.20;;;;;14.40;100343.00;;;;5092161;28;20558;-80
2021/11/30 06:30:13;;;;;;;2.53;1.25;;;;;14.50;100345.00;;;;5098735;28;20205;-81
2021/11/30 06:32:40;;;;;;;2.13;1.70;;;;;14.50;100339.00;;;;5100801;28;20813;-81
2021/11/30 06:35:09;;;;;;;1.70;1.00;;;;;14.50;100345.00;;;;5104914;27;20209;-82
2021/11/30 06:37:37;;;;;;;2.92;1.50;;;;;14.50;100334.00;;;;5099520;27;20229;-80
2021/11/30 06:40:06;;;;;;;3.60;1.92;;;;;14.60;100335.00;;;;5097950;28;20198;-77
2021/11/30 06:42:33;;;;;;;4.00;1.50;;;;;14.60;100335.00;;;;5110860;28;20221;-78
2021/11/30 06:45:01;;;;;;;2.83;1.63;;;;;14.60;100324.00;;;;5109322;28;20202;-81
2021/11/30 06:47:30;;;;;;;3.53;1.65;;;;;14.60;100331.00;;;;5110271;28;20209;-80
2021/11/30 06:49:57;;;;;;;2.17;1.35;;;;;14.60;100335.00;;;;5106930;28;20271;-81
2021/11/30 06:52:24;;;;;;;2.65;1.58;;;;;14.60;100340.00;;;;5097466;28;20222;-81
2021/11/30 06:54:55;;;;;;;3.17;1.75;;;;;14.60;100325.00;;;;5095280;28;20214;-86
2021/11/30 06:57:22;;;;;;;2.42;1.30;;;;;14.70;100326.00;;;;5098907;28;20221;-81
2021/11/30 06:59:50;;;;;;;3.92;1.42;;;;;14.70;100339.00;;;;5092862;28;20208;-80
2021/11/30 07:02:18;;;;;;;5.15;2.20;;;;;14.70;100342.00;;;;5100370;28;20194;-82
2021/11/30 07:04:48;;;;;;;2.20;1.50;;;;;14.70;100346.00;;;;5090193;28;20212;-82
2021/11/30 07:07:25;;;;;;;2.75;1.60;;;;;14.80;100341.00;;;;5109462;28;20663;-82
2021/11/30 07:10:08;;;;;;;4.10;1.75;;;;;14.80;100359.00;;;;5110085;28;20201;-80
2021/11/30 07:12:50;;;;;;;4.65;2.35;;;;;14.80;100350.00;;;;5105396;28;20202;-81
2021/11/30 07:15:17;;;;;;;4.50;2.28;;;;;14.80;100357.00;;;;5109695;28;20209;-81
2021/11/30 07:17:44;;;;;;;3.53;1.55;;;;;14.80;100363.00;;;;5109810;28;20253;-82
2021/11/30 07:20:12;;;;;;;3.25;1.90;;;;;14.90;100368.00;;;;5110390;28;20210;-81
2021/11/30 07:22:39;;;;;;;7.82;2.33;;;;;14.90;100371.00;;;;5109825;28;20587;-80
2021/11/30 07:25:08;;;;;;;3.75;1.77;;;;;14.90;100365.00;;;;5109753;28;20216;-82
2021/11/30 07:27:36;;;;;;;4.15;1.45;;;;;14.90;100374.00;;;;5108672;28;20197;-81
2021/11/30 07:30:03;;;;;;;5.90;1.70;;;;;14.90;100372.00;;;;5101969;28;20198;-80
2021/11/30 07:32:31;;;;;;;3.45;1.20;;;;;14.90;100388.00;;;;5101905;28;20659;-82
2021/11/30 07:34:58;;;;;;;2.65;1.10;;;;;15.00;100391.00;;;;5094934;28;20222;-81
2021/11/30 07:37:25;;;;;;;3.92;1.50;;;;;14.90;100387.00;;;;5093093;28;20287;-81
2021/11/30 07:39:52;;;;;;;4.47;1.05;;;;;15.00;100382.00;;;;5109052;28;20201;-81
2021/11/30 07:42:24;;;;;;;3.08;1.33;;;;;14.90;100377.00;;;;5109246;28;20197;-81
2021/11/30 07:44:51;;;;;;;2.60;0.93;;;;;15.00;100378.00;;;;5109149;28;20201;-81
2021/11/30 07:47:18;;;;;;;4.70;1.30;;;;;15.00;100390.00;;;;5101962;28;20213;-81
2021/11/30 07:49:45;;;;;;;2.47;1.13;;;;;15.00;100379.00;;;;5106749;28;20223;-80
2021/11/30 07:52:13;;;;;;;1.63;0.90;;;;;15.00;100383.00;;;;5106708;27;20225;-81
2021/11/30 07:54:42;;;;;;;3.95;0.93;;;;;15.00;100382.00;;;;5107367;28;20198;-82
2021/11/30 07:57:09;;;;;;;5.47;1.45;;;;;15.00;100386.00;;;;5096658;28;20198;-83
2021/11/30 07:59:38;;;;;;;2.30;1.23;;;;;15.00;100389.00;;;;5108307;28;20236;-81
2021/11/30 08:02:06;;;;;;;3.40;0.88;;;;;15.10;100396.00;;;;5094689;28;20221;-82
2021/11/30 08:04:33;;;;;;;2.45;1.15;;;;;15.10;100390.00;;;;5093435;28;20195;-81
2021/11/30 08:07:01;;;;;;;2.85;1.00;;;;;15.10;100389.00;;;;5098526;28;20648;-82
2021/11/30 08:09:33;;;;;;;2.83;0.90;;;;;15.10;100393.00;;;;5085273;28;20210;-83
2021/11/30 08:12:00;;;;;;;2.22;0.90;;;;;15.10;100391.00;;;;5094348;28;20251;-83
2021/11/30 08:14:28;;;;;;;3.85;1.00;;;;;15.10;100386.00;;;;5091904;27;20198;-82
2021/11/30 08:16:56;;;;;;;2.70;0.95;;;;;15.20;100386.00;;;;5094808;28;20229;-82
2021/11/30 08:19:24;;;;;;;3.53;1.27;;;;;15.20;100386.00;;;;5090601;28;20221;-82
2021/11/30 08:21:52;;;;;;;2.30;0.90;;;;;15.20;100391.00;;;;5092146;28;20617;-83
2021/11/30 08:24:19;;;;;;;3.20;1.17;;;;;15.20;100403.00;;;;5089040;28;20625;-83
2021/11/30 08:26:46;;;;;;;3.30;1.08;;;;;15.20;100394.00;;;;5098710;28;20190;-82
2021/11/30 08:29:13;;;;;;;2.50;0.70;;;;;15.30;100395.00;;;;5094861;28;20426;-82
2021/11/30 08:31:41;;;;;;;0.73;0.43;;;;;15.30;100400.00;;;;5107897;28;20258;-81
2021/11/30 08:34:09;;;;;;;2.28;1.08;;;;;15.30;100402.00;;;;5108546;28;20217;-82
2021/11/30 08:36:37;;;;;;;1.70;1.13;;;;;15.30;100397.00;;;;5108677;28;20196;-80
2021/11/30 08:39:04;;;;;;;4.97;1.42;;;;;15.30;100397.00;;;;5100964;28;20643;-80
2021/11/30 08:41:32;;;;;;;1.50;0.88;;;;;15.30;100391.00;;;;5088327;28;20382;-80
2021/11/30 08:43:59;;;;;;;1.40;0.63;;;;;15.30;100382.00;;;;5087878;28;20659;-81
2021/11/30 08:46:26;;;;;;;2.45;0.88;;;;;15.30;100377.00;;;;5090823;28;20205;-81
2021/11/30 08:48:53;;;;;;;1.00;0.50;;;;;15.30;100382.00;;;;5091131;28;20202;-79
2021/11/30 08:51:22;;;;;;;1.30;0.40;;;;;15.40;100381.00;;;;5097094;28;20190;-81
2021/11/30 08:53:49;;;;;;;1.83;0.50;;;;;15.40;100390.00;;;;5087812;28;20679;-80
2021/11/30 08:56:17;;;;;;;3.22;0.80;;;;;15.40;100384.00;;;;5097688;28;20566;-82
2021/11/30 08:58:44;;;;;;;2.45;0.57;;;;;15.40;100386.00;;;;5093644;28;20228;-82
2021/11/30 09:01:11;;;;;;;1.13;0.57;;;;;15.50;100380.00;;;;5089231;28;20198;-82
2021/11/30 09:03:39;;;;;;;0.95;0.60;;;;;15.50;100394.00;;;;5106613;28;20208;-83
2021/11/30 09:06:06;;;;;;;2.22;0.75;;;;;15.50;100396.00;;;;5098739;28;20205;-81
2021/11/30 09:08:34;;;;;;;1.10;0.45;;;;;15.50;100391.00;;;;5098896;28;20190;-80
2021/11/30 09:11:02;;;;;;;1.45;0.50;;;;;15.50;100384.00;;;;5090867;28;20198;-80
2021/11/30 09:13:30;;;;;;;1.30;0.52;;;;;15.50;100382.00;;;;5090595;28;20202;-80
2021/11/30 09:15:58;;;;;;;1.63;0.90;;;;;15.50;100395.00;;;;5100030;28;20199;-80
2021/11/30 09:18:29;;;;;;;0.73;0.50;;;;;15.50;100396.00;;;;5094689;28;20643;-80
2021/11/30 09:20:57;;;;;;;1.75;0.63;;;;;15.50;100397.00;;;;5100767;28;20193;-80
2021/11/30 09:23:27;;;;;;;1.42;0.50;;;;;15.60;100395.00;;;;5087780;28;20206;-79
2021/11/30 09:25:56;;;;;;;0.70;0.50;;;;;15.60;100405.00;;;;5095104;28;20649;-80
2021/11/30 09:28:24;;;;;;;0.52;0.43;;;;;15.60;100412.00;;;;5098272;28;20270;-80
2021/11/30 09:30:51;;;;;;;2.78;0.80;;;;;15.60;100426.00;;;;5094528;28;20202;-80
2021/11/30 09:33:19;;;;;;;0.60;0.30;;;;;15.60;100412.00;;;;5091057;28;20206;-81
2021/11/30 09:35:46;;;;;;;1.88;0.70;;;;;15.60;100413.00;;;;5089684;28;20739;-81
2021/11/30 09:38:14;;;;;;;0.73;0.40;;;;;15.60;100426.00;;;;5095989;28;20225;-80
2021/11/30 09:40:41;;;;;;;1.10;0.50;;;;;15.60;100419.00;;;;5100596;28;20205;-80
2021/11/30 09:43:10;;;;;;;1.85;0.65;;;;;15.60;100415.00;;;;5097054;28;20844;-80
2021/11/30 09:45:39;;;;;;;1.42;0.65;;;;;15.70;100414.00;;;;5097622;28;20198;-80
2021/11/30 09:48:11;;;;;;;1.92;0.60;;;;;15.70;100431.00;;;;5090914;28;20194;-81
2021/11/30 09:50:39;;;;;;;5.53;0.68;;;;;15.70;100433.00;;;;5100314;28;20655;-81
2021/11/30 09:53:07;;;;;;;2.30;0.75;;;;;15.70;100427.00;;;;5090860;28;20778;-81
2021/11/30 09:55:37;;;;;;;0.70;0.40;;;;;15.70;100433.00;;;;5097622;28;20802;-80
2021/11/30 09:58:05;;;;;;;2.63;0.80;;;;;15.70;100427.00;;;;5097324;28;20263;-80
2021/11/30 10:00:34;;;;;;;4.28;1.00;;;;;15.70;100427.00;;;;5090707;28;20477;-79
2021/11/30 10:03:02;;;;;;;2.30;0.95;;;;;15.70;100429.00;;;;5096790;28;20205;-80
2021/11/30 10:05:32;;;;;;;1.20;0.73;;;;;15.70;100419.00;;;;5092578;28;20201;-80
2021/11/30 10:08:01;;;;;;;3.65;1.02;;;;;15.70;100428.00;;;;5090638;28;20198;-80
2021/11/30 10:10:30;;;;;;;2.22;0.80;;;;;15.70;100425.00;;;;5100970;28;20651;-80
2021/11/30 10:13:12;;;;;;;1.90;0.88;;;;;15.70;100429.00;;;;5102051;28;20197;-80
2021/11/30 10:15:57;;;;;;;4.75;1.10;;;;;15.70;100427.00;;;;5096125;28;20209;-80
2021/11/30 10:18:26;;;;;;;3.10;0.60;;;;;15.80;100427.00;;;;5096309;28;20222;-81
2021/11/30 10:20:56;;;;;;;3.45;1.25;;;;;15.90;100442.00;;;;5092328;28;20202;-79
2021/11/30 10:23:25;;;;;;;2.42;0.82;;;;;15.90;100446.00;;;;5095387;28;20197;-80
2021/11/30 10:25:53;;;;;;;1.58;0.60;;;;;15.90;100453.00;;;;5098188;28;20209;-80
2021/11/30 10:28:27;;;;;;;1.17;0.63;;;;;15.90;100450.00;;;;5099611;28;20596;-80
2021/11/30 10:30:56;;;;;;;1.48;0.55;;;;;15.90;100451.00;;;;5095774;28;20202;-79
2021/11/30 10:33:25;;;;;;;1.60;0.38;;;;;15.90;100442.00;;;;5101170;28;20201;-80
2021/11/30 10:35:54;;;;;;;0.65;0.20;;;;;15.90;100442.00;;;;5090810;28;20206;-80
2021/11/30 10:38:24;;;;;;;0.55;0.20;;;;;16.00;100445.00;;;;5099930;28;20255;-79
2021/11/30 10:40:51;;;;;;;0.47;0.20;;;;;16.00;100443.00;;;;5103937;28;20201;-80
2021/11/30 10:43:23;;;;;;;0.30;0.10;;;;;15.90;100453.00;;;;5092428;28;20578;-80
2021/11/30 10:45:51;;;;;;;0.73;0.22;;;;;15.90;100456.00;;;;5092443;28;20209;-80
2021/11/30 10:48:21;;;;;;;0.60;0.20;;;;;15.90;100450.00;;;;5107429;28;20202;-80
2021/11/30 10:50:51;;;;;;;0.13;0.10;;;;;15.90;100451.00;;;;5099267;28;20213;-79
2021/11/30 10:53:22;;;;;;;0.10;0.10;;;;;15.80;100450.00;;;;5101286;28;20236;-80
2021/11/30 10:55:51;;;;;;;0.40;0.10;;;;;15.80;100453.00;;;;5089391;28;20202;-80
2021/11/30 10:58:19;;;;;;;0.20;0.05;;;;;15.80;100457.00;;;;5099572;27;20194;-80
2021/11/30 11:00:47;;;;;;;0.47;0.20;;;;;15.80;100460.00;;;;5097887;27;20243;-80
2021/11/30 11:03:19;;;;;;;0.35;0.10;;;;;15.80;100445.00;;;;5099897;28;20212;-80
2021/11/30 11:06:24;;;;;;;0.43;0.10;;;;;15.80;100446.00;;;;5089914;28;20206;-80
2021/11/30 11:08:42;;;;;;;0.50;0.20;;;;;15.70;100459.00;;;;5098347;28;20193;-80
2021/11/30 11:11:10;;;;;;;0.40;0.20;;;;;15.80;100449.00;;;;5089376;28;20198;-81
2021/11/30 11:13:38;;;;;;;0.50;0.20;;;;;15.80;100447.00;;;;5091783;28;20205;-81
2021/11/30 11:16:08;;;;;;;1.25;0.28;;;;;15.80;100439.00;;;;5099454;28;20233;-80
2021/11/30 11:18:37;;;;;;;2.05;0.40;;;;;15.80;100448.00;;;;5095714;28;20198;-80
2021/11/30 11:21:15;;;;;;;0.80;0.40;;;;;15.70;100448.00;;;;5096901;28;20204;-80
2021/11/30 11:23:44;;;;;;;0.85;0.50;;;;;15.80;100443.00;;;;5095062;28;20190;-81
2021/11/30 11:26:24;;;;;;;1.88;0.47;;;;;15.70;100442.00;;;;5087888;28;20206;-80
2021/11/30 11:28:52;;;;;;;2.38;0.60;;;;;15.80;100438.00;;;;5092500;28;20652;-80
2021/11/30 11:31:22;;;;;;;1.70;0.63;;;;;15.80;100445.00;;;;5093044;28;20201;-80
2021/11/30 11:33:49;;;;;;;1.50;0.65;;;;;15.80;100443.00;;;;5093949;28;20217;-80
2021/11/30 11:36:19;;;;;;;2.08;0.65;;;;;15.80;100447.00;;;;5091478;28;20198;-80
2021/11/30 11:38:46;;;;;;;0.93;0.40;;;;;15.80;100439.00;;;;5088746;28;20698;-80
2021/11/30 11:41:14;;;;;;;1.88;0.52;;;;;15.80;100447.00;;;;5088228;28;20551;-80
2021/11/30 11:43:42;;;;;;;1.67;0.68;;;;;15.80;100435.00;;;;5095423;28;20210;-80
2021/11/30 11:46:11;;;;;;;1.48;0.60;;;;;15.80;100442.00;;;;5092763;28;20530;-80
2021/11/30 11:48:40;;;;;;;1.63;0.40;;;;;15.80;100440.00;;;;5101650;28;20197;-81
2021/11/30 11:51:09;;;;;;;0.70;0.40;;;;;15.80;100431.00;;;;5088527;28;20201;-81
2021/11/30 11:53:49;;;;;;;0.75;0.30;;;;;15.70;100435.00;;;;5095596;28;20940;-81
2021/11/30 11:56:19;;;;;;;0.63;0.30;;;;;15.80;100430.00;;;;5092775;28;20198;-80
2021/11/30 11:58:49;;;;;;;0.80;0.45;;;;;15.80;100441.00;;;;5103327;28;20202;-81
2021/11/30 12:01:21;;;;;;;0.35;0.25;;;;;15.80;100431.00;;;;5092150;28;20201;-80
2021/11/30 12:03:58;;;;;;;0.63;0.40;;;;;15.80;100434.00;;;;5087390;28;20656;-79
2021/11/30 12:06:27;;;;;;;0.77;0.40;;;;;15.80;100435.00;;;;5091708;28;20987;-80
2021/11/30 12:09:17;;;;;;;0.40;0.20;;;;;15.70;100427.00;;;;5098682;28;20205;-80
2021/11/30 12:11:46;;;;;;;0.30;0.10;;;;;15.80;100420.00;;;;5098020;28;20198;-81
2021/11/30 12:14:18;;;;;;;0.10;0.10;;;;;15.80;100421.00;;;;5092832;28;20198;-80
2021/11/30 12:17:10;;;;;;;0.55;0.30;;;;;15.70;100422.00;;;;5087290;28;20248;-81